Strona główna
METAR-TAF:

METAR-TAF

Lotnisko :

Port lotniczy Kuching

Kuching, Malezja

Szerokość geograficzna: 01-29N, Długość geograficzna: 110-20E, wysokość: 27 m

Aktualna obserwacja pogody

Raport powstał 22 minut temu, godzina 00:30 UTC
Wiatr 2 kt z kierunków zmiennych
Temperatura 25°C
Wilgotność 94%
Ciśnienie 1013 hPa
Widzialność: 7000 m
Rozproszone chmury na wysokości 100 ft

METAR: WBGG 130030Z VRB02KT 7000 SCT001 25/24 Q1013 NOSIG

czas: 08:52 (00:52 UTC)

Prognoza

Raport powstał 1 godzina i 52 minut temu, godzina 23:00 UTC
Prognoza ważna od 13 godzina 00 UTC do 14 godzina 00 UTC
Wiatr 3 kt z kierunków zmiennych
Widzialność 10 km lub więcej
Rozproszone chmury na wysokości 2000 ft
Przejściowo
od 13 godzina 06 UTC do 13 godzina 10 UTC
Wiatr 10 kt od północno-północny zachód
Widzialność: 5000 m
Mało chmury na wysokości 1500 ft, Cumulonimbus.
przelotny opad deszczu

TAF: WBGG 122300Z 1300/1400 VRB03KT 9999 SCT020 TEMPO 1306/1310 33010KT 5000 SHRA FEW015CB

Obserwacja i prognoza pogody dla ponad 4000 lotnisk (raport METAR i TAF).

Dostępne stacje oznaczono żółtymi i czerwonymi punktami na mapie.

Najedź kursorem aby zobaczyć nazwę stacji.

Kliknij aby zobaczyć obserwacje i prognozy pogody.

Aby zmienić mapę: kliknij na zielony przycisk z czarnym krzyżykiem, aby powiększyć; na zielony przycisk z myślnikiem, aby pomniejszyć; na zielone strzałki, aby przejść do map sąsiednich.


METAR-TAF: